createdAt,value
2022-09-12T00:07:07.040Z,16
2022-09-12T00:09:33.631Z,15.9
2022-09-12T00:12:00.256Z,15.9
2022-09-12T00:14:26.877Z,15.9
2022-09-12T00:16:53.499Z,15.9
2022-09-12T00:21:46.798Z,15.9
2022-09-12T00:24:13.364Z,15.8
2022-09-12T00:26:40.012Z,15.8
2022-09-12T00:29:06.613Z,15.8
2022-09-12T00:31:31.735Z,15.7
2022-09-12T00:33:58.376Z,15.7
2022-09-12T00:36:24.998Z,15.7
2022-09-12T00:38:51.602Z,15.7
2022-09-12T00:41:18.248Z,15.7
2022-09-12T00:43:44.855Z,15.7
2022-09-12T00:46:11.475Z,15.6
2022-09-12T00:53:31.343Z,15.5
2022-09-12T00:55:56.475Z,15.4
2022-09-12T00:58:23.095Z,15.4
2022-09-12T01:00:49.725Z,15.4
2022-09-12T01:03:16.352Z,15.3
2022-09-12T01:05:42.974Z,15.3
2022-09-12T01:08:09.639Z,15.2
2022-09-12T01:10:36.287Z,15.2
2022-09-12T01:13:02.835Z,15.2
2022-09-12T01:20:22.707Z,15
2022-09-12T01:22:49.343Z,15
2022-09-12T01:25:15.958Z,14.9
2022-09-12T01:27:42.596Z,14.8
2022-09-12T01:30:07.708Z,14.8
2022-09-12T01:35:00.970Z,14.8
2022-09-12T01:37:27.569Z,14.8
2022-09-12T01:39:54.206Z,14.8
2022-09-12T01:42:20.836Z,14.8
2022-09-12T01:44:47.447Z,14.8
2022-09-12T01:47:14.082Z,14.8
2022-09-12T01:49:40.710Z,14.7
2022-09-12T01:52:07.308Z,14.7
2022-09-12T01:54:33.930Z,14.6
2022-09-12T01:57:00.569Z,14.6
2022-09-12T01:59:27.192Z,14.6
2022-09-12T02:04:18.931Z,14.6
2022-09-12T02:06:45.546Z,14.6
2022-09-12T02:09:12.169Z,14.6
2022-09-12T02:11:38.792Z,14.5
2022-09-12T02:14:05.418Z,14.5
2022-09-12T02:18:58.677Z,14.4
2022-09-12T02:21:25.307Z,14.4
2022-09-12T02:23:51.916Z,14.4
2022-09-12T02:26:18.529Z,14.4
2022-09-12T02:28:45.157Z,14.4
2022-09-12T02:33:38.399Z,14.3
2022-09-12T02:36:05.054Z,14.3
2022-09-12T02:38:30.162Z,14.3
2022-09-12T02:40:56.782Z,14.3
2022-09-12T02:43:23.398Z,14.3
2022-09-12T02:45:50.020Z,14.3
2022-09-12T02:48:16.637Z,14.2
2022-09-12T02:50:43.268Z,14.2
2022-09-12T02:53:09.904Z,14.1
2022-09-12T02:55:36.512Z,14.1
2022-09-12T02:58:03.133Z,14.1
2022-09-12T03:00:29.776Z,14.1
2022-09-12T03:02:56.382Z,14.1
2022-09-12T03:05:23.013Z,14.1
2022-09-12T03:10:16.259Z,14.1
2022-09-12T03:12:42.882Z,14.2
2022-09-12T03:15:08.012Z,14.2
2022-09-12T03:17:34.609Z,14.2
2022-09-12T03:20:01.238Z,14.2
2022-09-12T03:22:27.858Z,14.2
2022-09-12T03:24:54.494Z,14.2
2022-09-12T03:27:21.106Z,14.2
2022-09-12T03:32:14.358Z,14.2
2022-09-12T03:34:40.980Z,14.2
2022-09-12T03:37:07.628Z,14.2
2022-09-12T03:39:34.228Z,14.2
2022-09-12T03:42:00.840Z,14.2
2022-09-12T03:46:54.084Z,14.3
2022-09-12T03:49:20.710Z,14.3
2022-09-12T03:51:47.332Z,14.2
2022-09-12T03:54:13.955Z,14.2
2022-09-12T03:56:40.617Z,14.2
2022-09-12T04:01:33.837Z,14.3
2022-09-12T04:03:58.960Z,14.3
2022-09-12T04:06:25.567Z,14.3
2022-09-12T04:08:52.206Z,14.3
2022-09-12T04:11:18.844Z,14.3
2022-09-12T04:16:12.060Z,14.4
2022-09-12T04:18:38.689Z,14.4
2022-09-12T04:21:05.324Z,14.3
2022-09-12T04:23:31.937Z,14.3
2022-09-12T04:25:58.578Z,14.3
2022-09-12T04:28:25.187Z,14.3
2022-09-12T04:30:51.816Z,14.3
2022-09-12T04:33:18.499Z,14.3
2022-09-12T04:35:45.046Z,14.3
2022-09-12T04:38:11.700Z,14.3
2022-09-12T04:40:36.804Z,14.3
2022-09-12T04:45:30.046Z,14.2
2022-09-12T04:47:56.679Z,14.2
2022-09-12T04:50:23.302Z,14.1
2022-09-12T04:52:49.914Z,14.1
2022-09-12T04:55:16.546Z,14
2022-09-12T04:57:43.175Z,14
2022-09-12T05:00:09.786Z,14
2022-09-12T05:02:36.405Z,14
2022-09-12T05:05:03.039Z,13.9
2022-09-12T05:07:29.659Z,13.9
2022-09-12T05:09:54.791Z,14
2022-09-12T05:12:21.445Z,14
2022-09-12T05:14:46.541Z,14
2022-09-12T05:17:13.186Z,14
2022-09-12T05:19:39.781Z,14.1
2022-09-12T05:22:06.398Z,14.1
2022-09-12T05:24:33.145Z,14.1
2022-09-12T05:26:59.704Z,14.1
2022-09-12T05:29:26.288Z,14.1
2022-09-12T05:31:52.889Z,14.1
2022-09-12T05:34:19.542Z,14.2
2022-09-12T05:36:44.642Z,14.2
2022-09-12T05:39:11.301Z,14.1
2022-09-12T05:41:37.903Z,14.1
2022-09-12T05:44:04.571Z,14.1
2022-09-12T05:46:31.144Z,14
2022-09-12T05:48:57.771Z,14
2022-09-12T05:51:24.397Z,14
2022-09-12T05:53:51.008Z,14
2022-09-12T05:56:16.142Z,14
2022-09-12T05:58:42.802Z,14
2022-09-12T06:01:09.404Z,14
2022-09-12T06:03:36.011Z,14
2022-09-12T06:06:02.624Z,14
2022-09-12T06:08:29.272Z,14
2022-09-12T06:10:55.891Z,14
2022-09-12T06:13:22.498Z,14
2022-09-12T06:15:49.123Z,14
2022-09-12T06:18:15.739Z,14
2022-09-12T06:20:42.363Z,14
2022-09-12T06:23:08.991Z,14
2022-09-12T06:25:35.623Z,14
2022-09-12T06:28:00.743Z,14
2022-09-12T06:30:27.369Z,14
2022-09-12T06:32:54.049Z,14
2022-09-12T06:35:20.605Z,14
2022-09-12T06:37:47.292Z,14
2022-09-12T06:40:13.849Z,14
2022-09-12T06:42:40.466Z,14.1
2022-09-12T06:45:07.106Z,14.1
2022-09-12T06:47:33.727Z,14.2
2022-09-12T06:50:00.346Z,14.3
2022-09-12T06:52:26.975Z,14.3
2022-09-12T06:54:53.598Z,14.4
2022-09-12T06:57:20.242Z,14.5
2022-09-12T06:59:45.339Z,14.5
2022-09-12T07:02:12.033Z,14.6
2022-09-12T07:04:38.583Z,14.6
2022-09-12T07:07:05.212Z,14.7
2022-09-12T07:09:31.838Z,14.7
2022-09-12T07:11:58.480Z,14.8
2022-09-12T07:14:25.074Z,14.9
2022-09-12T07:16:51.689Z,15
2022-09-12T07:19:18.340Z,15
2022-09-12T07:21:44.944Z,15.1
2022-09-12T07:24:11.593Z,15.2
2022-09-12T07:26:38.188Z,15.3
2022-09-12T07:29:04.818Z,15.5
2022-09-12T07:31:29.951Z,15.6
2022-09-12T07:33:56.562Z,15.7
2022-09-12T07:36:23.187Z,15.8
2022-09-12T07:38:49.833Z,15.9
2022-09-12T07:41:16.434Z,16
2022-09-12T07:43:43.060Z,16.2
2022-09-12T07:46:09.667Z,16.4
2022-09-12T07:48:36.299Z,16.6
2022-09-12T07:51:02.923Z,16.8
2022-09-12T07:53:29.571Z,17
2022-09-12T07:55:56.182Z,17.2
2022-09-12T07:58:22.789Z,17.4
2022-09-12T08:00:49.410Z,17.5
2022-09-12T08:03:16.041Z,17.7
2022-09-12T08:05:41.166Z,17.9
2022-09-12T08:08:07.799Z,18
2022-09-12T08:10:34.409Z,18.1
2022-09-12T08:13:01.039Z,18.3
2022-09-12T08:15:27.654Z,18.5
2022-09-12T08:17:54.274Z,18.7
2022-09-12T08:20:20.906Z,18.9
2022-09-12T08:22:47.620Z,19.1
2022-09-12T08:25:14.157Z,19.3
2022-09-12T08:27:40.769Z,19.6
2022-09-12T08:30:07.398Z,19.7
2022-09-12T08:32:34.022Z,19.9
2022-09-12T08:35:00.677Z,20.1
2022-09-12T08:37:25.764Z,20.2
2022-09-12T08:39:52.377Z,20.4
2022-09-12T08:42:19.009Z,20.6
2022-09-12T08:44:45.680Z,20.8
2022-09-12T08:47:12.243Z,21.1
2022-09-12T08:49:38.906Z,21.3
2022-09-12T08:52:05.502Z,21.6
2022-09-12T08:54:32.140Z,21.8
2022-09-12T08:56:58.792Z,22.1
2022-09-12T08:59:25.365Z,22.2
2022-09-12T09:01:51.995Z,22.5
2022-09-12T09:04:18.610Z,22.7
2022-09-12T09:06:43.766Z,22.8
2022-09-12T09:09:10.409Z,23
2022-09-12T09:11:36.995Z,23.2
2022-09-12T09:14:03.616Z,23.4
2022-09-12T09:16:30.228Z,23.5
2022-09-12T09:18:56.893Z,23.7
2022-09-12T09:21:23.483Z,23.8
2022-09-12T09:23:50.141Z,23.9
2022-09-12T09:26:16.735Z,24
2022-09-12T09:28:43.353Z,24.2
2022-09-12T09:31:09.968Z,24.3
2022-09-12T09:33:36.648Z,24.5
2022-09-12T09:38:29.859Z,24.8
2022-09-12T09:40:54.997Z,24.9
2022-09-12T09:43:21.577Z,25
2022-09-12T09:45:48.321Z,25.1
2022-09-12T09:48:14.835Z,25.3
2022-09-12T09:50:41.534Z,25.4
2022-09-12T09:53:08.086Z,25.5
2022-09-12T09:55:34.713Z,25.7
2022-09-12T09:58:01.353Z,25.8
2022-09-12T10:00:27.946Z,25.9
2022-09-12T10:02:54.575Z,26
2022-09-12T10:05:21.328Z,26.1
2022-09-12T10:07:47.821Z,26.2
2022-09-12T10:10:14.442Z,26.3
2022-09-12T10:12:41.057Z,26.5
2022-09-12T10:15:07.675Z,26.5
2022-09-12T10:17:32.801Z,26.6
2022-09-12T10:19:59.433Z,26.7
2022-09-12T10:22:26.194Z,26.8
2022-09-12T10:24:52.677Z,26.9
2022-09-12T10:27:19.302Z,27
2022-09-12T10:29:45.930Z,27.1
2022-09-12T10:32:12.588Z,27.2
2022-09-12T10:34:39.175Z,27.3
2022-09-12T10:37:05.793Z,27.4
2022-09-12T10:39:32.412Z,27.5
2022-09-12T10:41:59.037Z,27.6
2022-09-12T10:44:25.649Z,27.6
2022-09-12T10:46:52.279Z,27.7
2022-09-12T10:51:44.030Z,27.9
2022-09-12T10:59:03.914Z,28.2
2022-09-12T11:01:30.531Z,28.3
2022-09-12T11:03:55.681Z,28.3
2022-09-12T11:06:20.784Z,28.4
2022-09-12T11:08:47.455Z,28.5
2022-09-12T11:11:14.070Z,28.6
2022-09-12T11:13:40.761Z,28.6
2022-09-12T11:16:07.273Z,28.7
2022-09-12T11:18:33.891Z,28.8
2022-09-12T11:21:00.535Z,29
2022-09-12T11:23:27.153Z,29.1
2022-09-12T11:25:53.770Z,29.2
2022-09-12T11:28:20.452Z,29.2
2022-09-12T11:30:45.516Z,29.2
2022-09-12T11:38:03.898Z,29.5
2022-09-12T11:40:30.525Z,29.7
2022-09-12T11:42:57.130Z,29.8
2022-09-12T11:45:23.757Z,29.8
2022-09-12T11:47:50.379Z,29.9
2022-09-12T11:50:17.012Z,30
2022-09-12T11:52:43.625Z,30.1
2022-09-12T11:55:10.253Z,30.2
2022-09-12T11:57:36.889Z,30.3
2022-09-12T12:00:03.498Z,30.4
2022-09-12T12:04:56.752Z,30.5
2022-09-12T12:07:21.925Z,30.4
2022-09-12T12:09:48.679Z,30.3
2022-09-12T12:12:15.134Z,30.2
2022-09-12T12:14:41.777Z,30.3
2022-09-12T12:17:08.377Z,30.3
2022-09-12T12:19:34.991Z,30.4
2022-09-12T12:22:01.624Z,30.5
2022-09-12T12:24:28.239Z,30.5
2022-09-12T12:26:54.885Z,30.4
2022-09-12T12:29:21.497Z,30.4
2022-09-12T12:34:14.751Z,30.4
2022-09-12T12:36:41.378Z,30.6
2022-09-12T12:39:06.493Z,30.7
2022-09-12T12:41:33.111Z,30.8
2022-09-12T12:43:59.745Z,30.9
2022-09-12T12:46:26.364Z,31
2022-09-12T12:51:19.612Z,31.1
2022-09-12T12:53:44.754Z,31
2022-09-12T12:56:09.873Z,31
2022-09-12T12:58:36.510Z,31
2022-09-12T13:03:29.750Z,31.2
2022-09-12T13:05:56.379Z,31.2
2022-09-12T13:08:22.992Z,31.2
2022-09-12T13:10:49.610Z,31.2
2022-09-12T13:15:42.873Z,31.4
2022-09-12T13:18:09.522Z,31.5
2022-09-12T13:20:36.151Z,31.5
2022-09-12T13:23:02.725Z,31.4
2022-09-12T13:25:27.861Z,31.4
2022-09-12T13:27:52.987Z,31.3
2022-09-12T13:30:19.625Z,31.2
2022-09-12T13:32:46.268Z,31.1
2022-09-12T13:37:39.473Z,31
2022-09-12T13:40:06.103Z,30.9
2022-09-12T13:42:32.785Z,30.9
2022-09-12T13:44:59.367Z,30.9
2022-09-12T13:47:25.986Z,30.9
2022-09-12T13:49:52.602Z,31
2022-09-12T13:52:19.226Z,31.1
2022-09-12T13:54:45.842Z,31
2022-09-12T13:57:12.468Z,31.1
2022-09-12T13:59:39.104Z,31.2
2022-09-12T14:04:30.850Z,31.1
2022-09-12T14:06:57.482Z,31.1
2022-09-12T14:09:24.103Z,31.1
2022-09-12T14:11:50.747Z,31
2022-09-12T14:14:17.349Z,31.1
2022-09-12T14:16:44.176Z,31.1
2022-09-12T14:19:10.642Z,31.1
2022-09-12T14:21:37.226Z,31.2
2022-09-12T14:24:03.840Z,31.1
2022-09-12T14:31:23.715Z,31
2022-09-12T14:33:50.398Z,31
2022-09-12T14:36:15.459Z,31
2022-09-12T14:38:42.082Z,31
2022-09-12T14:41:08.710Z,31.1
2022-09-12T14:43:35.327Z,31.1
2022-09-12T14:46:02.002Z,31.1
2022-09-12T14:48:28.585Z,31
2022-09-12T14:50:55.207Z,31
2022-09-12T14:53:21.827Z,30.8
2022-09-12T14:55:48.459Z,30.8
2022-09-12T14:58:15.166Z,30.8
2022-09-12T15:00:41.701Z,30.8
2022-09-12T15:03:08.433Z,30.8
2022-09-12T15:05:34.953Z,30.6
2022-09-12T15:08:01.609Z,30.4
2022-09-12T15:10:28.189Z,30.3
2022-09-12T15:15:19.950Z,30.2
2022-09-12T15:17:46.635Z,30.1
2022-09-12T15:20:13.201Z,30
2022-09-12T15:22:39.814Z,30.1
2022-09-12T15:25:04.967Z,30.1
2022-09-12T15:27:30.081Z,30.1
2022-09-12T15:29:56.713Z,30
2022-09-12T15:32:23.353Z,30
2022-09-12T15:34:49.952Z,29.9
2022-09-12T15:37:16.573Z,29.8
2022-09-12T15:39:43.200Z,29.7
2022-09-12T15:44:36.451Z,29.4
2022-09-12T15:47:03.060Z,29.4
2022-09-12T15:49:29.698Z,29.3
2022-09-12T15:51:56.314Z,29.3
2022-09-12T15:54:22.928Z,29.3
2022-09-12T15:56:49.604Z,29.2
2022-09-12T15:59:14.693Z,29.1
2022-09-12T16:04:07.926Z,28.9
2022-09-12T16:06:33.070Z,28.8
2022-09-12T16:08:58.188Z,28.7
2022-09-12T16:11:24.816Z,28.5
2022-09-12T16:13:51.431Z,28.4
2022-09-12T16:16:18.074Z,28.3
2022-09-12T16:18:44.678Z,28.2
2022-09-12T16:21:11.296Z,28.2
2022-09-12T16:23:37.924Z,28.1
2022-09-12T16:28:31.207Z,28
2022-09-12T16:33:24.428Z,27.7
2022-09-12T16:35:51.043Z,27.7
2022-09-12T16:38:17.668Z,27.7
2022-09-12T16:40:44.296Z,27.6
2022-09-12T16:48:02.668Z,27.6
2022-09-12T16:50:29.278Z,27.6
2022-09-12T16:52:55.945Z,27.6
2022-09-12T16:55:22.533Z,27.6
2022-09-12T16:57:49.154Z,27.6
2022-09-12T17:02:42.411Z,27.6
2022-09-12T17:05:09.026Z,27.6
2022-09-12T17:07:35.647Z,27.6
2022-09-12T17:10:02.279Z,27.5
2022-09-12T17:12:28.961Z,27.5
2022-09-12T17:17:22.145Z,27.4
2022-09-12T17:19:47.322Z,27.4
2022-09-12T17:22:13.970Z,27.3
2022-09-12T17:24:40.537Z,27.3
2022-09-12T17:27:07.229Z,27.3
2022-09-12T17:32:00.391Z,27.1
2022-09-12T17:34:27.021Z,27.1
2022-09-12T17:36:53.627Z,27
2022-09-12T17:39:20.257Z,27
2022-09-12T17:41:46.921Z,26.9
2022-09-12T17:46:40.131Z,26.8
2022-09-12T17:49:06.736Z,26.7
2022-09-12T17:51:33.370Z,26.6
2022-09-12T17:53:58.506Z,26.6
2022-09-12T17:56:25.118Z,26.5
2022-09-12T17:58:51.742Z,26.4
2022-09-12T18:01:18.358Z,26.3
2022-09-12T18:03:44.980Z,26.1
2022-09-12T18:06:11.724Z,26
2022-09-12T18:08:38.238Z,25.8
2022-09-12T18:11:04.898Z,25.7
2022-09-12T18:15:58.093Z,25.6
2022-09-12T18:18:24.717Z,25.4
2022-09-12T18:20:51.341Z,25.3
2022-09-12T18:23:17.979Z,25.2
2022-09-12T18:25:44.585Z,25.1
2022-09-12T18:30:37.847Z,25
2022-09-12T18:33:02.973Z,24.9
2022-09-12T18:35:29.583Z,24.8
2022-09-12T18:40:22.841Z,24.6
2022-09-12T18:42:49.517Z,24.5
2022-09-12T18:45:16.104Z,24.4
2022-09-12T18:47:42.747Z,24.4
2022-09-12T18:50:09.324Z,24.3
2022-09-12T18:52:35.950Z,24.3
2022-09-12T18:55:02.636Z,24.2
2022-09-12T18:57:29.221Z,24.1
2022-09-12T18:59:55.817Z,24
2022-09-12T19:02:22.460Z,24
2022-09-12T19:07:15.682Z,23.9
2022-09-12T19:09:40.839Z,23.8
2022-09-12T19:12:07.445Z,23.7
2022-09-12T19:14:34.064Z,23.6
2022-09-12T19:17:00.677Z,23.5
2022-09-12T19:19:27.307Z,23.4
2022-09-12T19:21:53.957Z,23.3
2022-09-12T19:24:20.543Z,23.2
2022-09-12T19:26:47.226Z,23.2
2022-09-12T19:29:13.853Z,23.1
2022-09-12T19:31:38.925Z,22.9
2022-09-12T19:34:05.571Z,22.8
2022-09-12T19:36:30.685Z,22.7
2022-09-12T19:38:57.296Z,22.6
2022-09-12T19:41:23.923Z,22.6
2022-09-12T19:43:50.543Z,22.5
2022-09-12T19:46:17.170Z,22.5
2022-09-12T19:48:43.789Z,22.4
2022-09-12T19:51:10.414Z,22.4
2022-09-12T19:53:37.028Z,22.3
2022-09-12T19:56:03.666Z,22.3
2022-09-12T19:58:30.285Z,22.2
2022-09-12T20:00:55.403Z,22.2
2022-09-12T20:03:22.032Z,22.1
2022-09-12T20:05:48.665Z,22
2022-09-12T20:08:15.273Z,22
2022-09-12T20:10:40.415Z,21.9
2022-09-12T20:13:07.044Z,21.8
2022-09-12T20:15:33.670Z,21.8
2022-09-12T20:18:00.328Z,21.8
2022-09-12T20:22:53.528Z,21.7
2022-09-12T20:25:20.147Z,21.7
2022-09-12T20:27:46.757Z,21.6
2022-09-12T20:30:13.389Z,21.6
2022-09-12T20:32:40.042Z,21.6
2022-09-12T20:35:06.677Z,21.5
2022-09-12T20:37:33.250Z,21.5
2022-09-12T20:39:59.890Z,21.4
2022-09-12T20:44:51.624Z,21.3
2022-09-12T20:47:18.248Z,21.3
2022-09-12T20:49:43.383Z,21.2
2022-09-12T20:52:08.501Z,21.2
2022-09-12T20:54:35.127Z,21.1
2022-09-12T20:57:01.759Z,21
2022-09-12T20:59:28.373Z,20.9
2022-09-12T21:01:54.991Z,20.8
2022-09-12T21:04:21.620Z,20.8
2022-09-12T21:06:48.298Z,20.7
2022-09-12T21:11:41.509Z,20.6
2022-09-12T21:14:08.141Z,20.5
2022-09-12T21:16:34.721Z,20.4
2022-09-12T21:19:01.388Z,20.3
2022-09-12T21:21:27.974Z,20.2
2022-09-12T21:23:53.128Z,20.1
2022-09-12T21:26:19.718Z,20
2022-09-12T21:28:46.348Z,19.9
2022-09-12T21:33:39.615Z,19.9
2022-09-12T21:36:04.733Z,19.8
2022-09-12T21:38:29.866Z,19.8
2022-09-12T21:40:56.489Z,19.8
2022-09-12T21:43:23.089Z,19.8
2022-09-12T21:45:49.729Z,19.7
2022-09-12T21:48:16.349Z,19.7
2022-09-12T21:50:43.046Z,19.6
2022-09-12T21:53:09.599Z,19.6
2022-09-12T21:55:36.219Z,19.5
2022-09-12T21:58:02.865Z,19.5
2022-09-12T22:00:29.458Z,19.5
2022-09-12T22:02:56.136Z,19.5
2022-09-12T22:05:21.207Z,19.5
2022-09-12T22:07:47.835Z,19.4
2022-09-12T22:10:12.971Z,19.4
2022-09-12T22:12:39.610Z,19.3
2022-09-12T22:15:06.207Z,19.3
2022-09-12T22:19:59.488Z,19.1
2022-09-12T22:22:26.100Z,19
2022-09-12T22:24:52.764Z,19
2022-09-12T22:27:19.321Z,19
2022-09-12T22:29:45.967Z,19
2022-09-12T22:32:12.567Z,18.9
2022-09-12T22:34:39.192Z,18.9
2022-09-12T22:37:05.813Z,18.8
2022-09-12T22:39:32.440Z,18.8
2022-09-12T22:41:57.581Z,18.8
2022-09-12T22:44:24.220Z,18.7
2022-09-12T22:49:17.441Z,18.6
2022-09-12T22:51:42.623Z,18.5
2022-09-12T22:54:07.706Z,18.4
2022-09-12T22:56:34.299Z,18.3
2022-09-12T22:59:00.931Z,18.3
2022-09-12T23:01:27.619Z,18.3
2022-09-12T23:03:54.216Z,18.3
2022-09-12T23:06:20.814Z,18.3
2022-09-12T23:08:47.423Z,18.3
2022-09-12T23:11:14.045Z,18.2
2022-09-12T23:13:40.681Z,18.2
2022-09-12T23:16:07.296Z,18.2
2022-09-12T23:18:32.413Z,18.2
2022-09-12T23:20:57.554Z,18.1
2022-09-12T23:23:24.186Z,18.1
2022-09-12T23:25:50.790Z,18
2022-09-12T23:28:17.407Z,17.9
2022-09-12T23:30:44.041Z,17.9
2022-09-12T23:33:10.661Z,17.8
2022-09-12T23:35:37.286Z,17.8
2022-09-12T23:38:03.916Z,17.8
2022-09-12T23:40:30.538Z,17.8
2022-09-12T23:42:57.157Z,17.8
2022-09-12T23:45:22.310Z,17.8
2022-09-12T23:47:47.416Z,17.8
2022-09-12T23:50:14.047Z,17.8
2022-09-12T23:52:40.652Z,17.7
2022-09-12T23:55:07.327Z,17.7
2022-09-12T23:57:33.901Z,17.5
